Time;durP1;ratioP1;P1;durP2;ratioP2;P2;SDS_P1;SDS_P2;PMS_P1;PMS_P2;Temp;Humidity;BMP_temperature;BMP_pressure;BME280_temperature;BME280_humidity;BME280_pressure;Samples;Min_cycle;Max_cycle;Signal;HPM_P1;HPM_P2
2021/10/01 00:00:47;;;;;;;3.67;3.37;;;10.60;43.80;;;;;;5054106;28;20179;-86
2021/10/01 00:03:13;;;;;;;6.30;3.70;;;10.60;44.40;;;;;;5053912;28;20919;-85
2021/10/01 00:05:42;;;;;;;3.60;3.30;;;10.70;44.80;;;;;;5053591;28;20459;-85
2021/10/01 00:08:09;;;;;;;4.60;2.93;;;10.60;44.90;;;;;;5053449;28;20172;-86
2021/10/01 00:10:34;;;;;;;3.73;2.93;;;10.60;45.50;;;;;;5054640;28;20453;-86
2021/10/01 00:13:00;;;;;;;5.70;3.67;;;10.60;45.70;;;;;;5053527;28;20426;-86
2021/10/01 00:15:27;;;;;;;3.57;3.37;;;10.50;45.40;;;;;;5053661;28;20322;-86
2021/10/01 00:17:53;;;;;;;3.60;2.90;;;10.60;46.00;;;;;;5053806;28;20187;-86
2021/10/01 00:20:19;;;;;;;3.97;3.10;;;10.60;45.40;;;;;;5054131;28;20500;-85
2021/10/01 00:22:44;;;;;;;2.97;2.73;;;10.70;44.80;;;;;;5054095;28;20545;-85
2021/10/01 00:25:10;;;;;;;3.93;2.90;;;10.70;44.30;;;;;;5053823;28;20191;-86
2021/10/01 00:27:36;;;;;;;4.00;2.77;;;10.80;44.00;;;;;;5052941;28;20259;-86
2021/10/01 00:30:06;;;;;;;2.80;2.60;;;10.80;42.90;;;;;;5054008;28;20172;-86
2021/10/01 00:32:32;;;;;;;2.83;2.63;;;10.80;43.20;;;;;;5053460;28;20190;-86
2021/10/01 00:34:57;;;;;;;2.07;1.97;;;10.80;43.10;;;;;;5053182;28;20418;-86
2021/10/01 00:37:23;;;;;;;5.13;2.67;;;10.80;43.00;;;;;;5052972;28;20502;-85
2021/10/01 00:39:49;;;;;;;3.07;2.33;;;10.70;42.80;;;;;;5053050;28;20176;-85
2021/10/01 00:42:14;;;;;;;2.23;2.03;;;10.70;43.40;;;;;;5052755;28;20183;-86
2021/10/01 00:44:40;;;;;;;2.43;2.23;;;10.70;43.50;;;;;;5052815;28;20230;-85
2021/10/01 00:47:06;;;;;;;3.30;2.90;;;10.60;43.30;;;;;;5052471;28;20644;-85
2021/10/01 00:49:31;;;;;;;3.00;2.70;;;10.50;44.70;;;;;;5052867;28;20172;-85
2021/10/01 00:51:57;;;;;;;3.17;2.87;;;10.60;44.90;;;;;;5052463;28;20660;-85
2021/10/01 00:54:23;;;;;;;4.17;3.20;;;10.50;46.30;;;;;;5052717;28;20679;-86
2021/10/01 00:56:49;;;;;;;5.13;3.70;;;10.50;46.50;;;;;;5052498;28;20180;-85
2021/10/01 00:59:15;;;;;;;3.80;3.37;;;10.50;46.80;;;;;;5052698;28;20937;-86
2021/10/01 01:01:41;;;;;;;9.00;3.27;;;10.50;47.00;;;;;;5052664;28;20418;-85
2021/10/01 01:04:09;;;;;;;3.90;3.23;;;10.50;47.00;;;;;;5052670;28;20246;-85
2021/10/01 01:06:59;;;;;;;5.43;2.80;;;10.40;47.10;;;;;;5052328;28;20414;-86
2021/10/01 01:09:31;;;;;;;3.40;3.10;;;10.40;47.10;;;;;;5052593;28;20465;-86
2021/10/01 01:12:09;;;;;;;2.77;2.53;;;10.40;47.30;;;;;;5052451;28;20411;-86
2021/10/01 01:15:02;;;;;;;3.17;2.87;;;10.40;47.10;;;;;;5052339;28;20410;-86
2021/10/01 01:17:42;;;;;;;4.10;3.80;;;10.40;47.50;;;;;;5052158;28;20418;-86
2021/10/01 01:20:15;;;;;;;3.40;3.10;;;10.30;47.20;;;;;;5052327;28;20460;-86
2021/10/01 01:23:22;;;;;;;3.33;3.00;;;10.30;47.40;;;;;;5051953;28;20551;-86
2021/10/01 01:26:09;;;;;;;5.40;2.93;;;10.30;47.70;;;;;;5052127;28;20538;-86
2021/10/01 01:28:54;;;;;;;5.03;3.20;;;10.30;47.00;;;;;;5051824;28;20422;-86
2021/10/01 01:31:44;;;;;;;3.23;2.93;;;10.20;47.40;;;;;;5052118;28;20469;-86
2021/10/01 01:34:17;;;;;;;2.93;2.57;;;10.10;47.90;;;;;;5051999;28;20418;-85
2021/10/01 01:36:45;;;;;;;3.17;2.90;;;10.10;47.70;;;;;;5051383;28;20832;-86
2021/10/01 01:39:11;;;;;;;2.97;2.77;;;10.20;47.40;;;;;;5051776;28;20414;-86
2021/10/01 01:41:38;;;;;;;3.07;2.87;;;10.20;47.10;;;;;;5051920;28;20422;-86
2021/10/01 01:44:06;;;;;;;3.30;3.10;;;10.30;47.10;;;;;;5051420;28;20531;-86
2021/10/01 01:46:33;;;;;;;3.50;2.90;;;10.40;46.70;;;;;;5052880;28;20560;-86
2021/10/01 01:48:59;;;;;;;3.47;3.17;;;10.40;46.50;;;;;;5051282;28;20510;-85
2021/10/01 01:51:26;;;;;;;3.07;2.83;;;10.30;46.30;;;;;;5051470;28;20418;-86
2021/10/01 01:53:52;;;;;;;3.30;3.00;;;10.30;46.80;;;;;;5051371;28;20422;-86
2021/10/01 01:56:18;;;;;;;3.23;2.93;;;10.30;46.80;;;;;;5051623;28;20475;-86
2021/10/01 01:58:45;;;;;;;3.67;3.27;;;10.40;46.80;;;;;;5051121;28;20808;-86
2021/10/01 02:01:12;;;;;;;3.57;3.27;;;10.30;46.80;;;;;;5051527;28;20454;-86
2021/10/01 02:03:39;;;;;;;3.93;3.23;;;10.30;46.50;;;;;;5052323;28;20410;-86
2021/10/01 02:06:06;;;;;;;3.63;3.33;;;10.30;47.00;;;;;;5051392;28;20418;-85
2021/10/01 02:08:34;;;;;;;2.80;2.60;;;10.30;46.50;;;;;;5050963;28;20410;-85
2021/10/01 02:11:00;;;;;;;3.73;3.13;;;10.20;46.70;;;;;;5051270;28;20529;-87
2021/10/01 02:13:27;;;;;;;5.60;3.23;;;10.30;47.10;;;;;;5050970;28;20430;-85
2021/10/01 02:15:54;;;;;;;3.63;2.93;;;10.30;47.60;;;;;;5051186;28;20415;-86
2021/10/01 02:18:23;;;;;;;4.67;3.30;;;10.20;47.10;;;;;;5050734;28;20418;-86
2021/10/01 02:20:51;;;;;;;3.13;2.93;;;10.20;47.10;;;;;;5051137;28;20426;-86
2021/10/01 02:23:16;;;;;;;3.33;3.13;;;10.10;47.40;;;;;;5050929;28;20425;-86
2021/10/01 02:29:02;;;;;;;3.00;2.80;;;10.10;47.20;;;;;;5052183;28;20471;-86
2021/10/01 02:31:35;;;;;;;2.57;2.43;;;10.00;47.90;;;;;;5050957;28;20422;-86
2021/10/01 02:34:03;;;;;;;3.50;2.73;;;10.00;48.00;;;;;;5050784;28;20502;-86
2021/10/01 02:36:30;;;;;;;2.80;2.60;;;10.00;48.00;;;;;;5050825;28;20418;-86
2021/10/01 02:38:56;;;;;;;2.70;2.50;;;10.00;48.00;;;;;;5050520;28;20480;-86
2021/10/01 02:41:21;;;;;;;3.20;2.90;;;9.90;48.80;;;;;;5050914;28;20422;-86
2021/10/01 02:43:47;;;;;;;2.93;2.73;;;9.90;49.50;;;;;;5050573;28;20196;-86
2021/10/01 02:46:12;;;;;;;3.00;2.80;;;9.90;49.20;;;;;;5050881;28;20180;-86
2021/10/01 02:48:39;;;;;;;3.30;3.00;;;9.90;49.10;;;;;;5049714;28;20180;-86
2021/10/01 02:51:11;;;;;;;2.70;2.50;;;9.90;49.30;;;;;;5050432;28;20673;-86
2021/10/01 02:53:55;;;;;;;2.80;2.60;;;9.90;49.80;;;;;;5050433;28;20529;-85
2021/10/01 02:56:29;;;;;;;3.73;3.00;;;9.90;49.20;;;;;;5050649;28;20415;-85
2021/10/01 02:58:58;;;;;;;4.53;3.30;;;9.90;49.40;;;;;;5050410;28;20446;-86
2021/10/01 03:01:28;;;;;;;3.50;3.20;;;10.00;48.30;;;;;;5050574;28;20870;-84
2021/10/01 03:03:58;;;;;;;3.40;3.10;;;10.00;48.80;;;;;;5050330;28;20557;-85
2021/10/01 03:06:29;;;;;;;2.70;2.60;;;9.90;49.70;;;;;;5050977;28;20432;-85
2021/10/01 03:08:54;;;;;;;2.80;2.60;;;10.00;48.00;;;;;;5050277;28;20460;-86
2021/10/01 03:11:24;;;;;;;2.47;2.37;;;9.90;49.40;;;;;;5050587;28;20411;-86
2021/10/01 03:13:51;;;;;;;3.33;2.70;;;9.90;49.30;;;;;;5050362;28;20419;-86
2021/10/01 03:16:20;;;;;;;5.77;3.40;;;9.80;50.00;;;;;;5050664;28;20430;-86
2021/10/01 03:18:47;;;;;;;3.33;3.10;;;9.80;50.20;;;;;;5050231;28;20513;-84
2021/10/01 03:21:15;;;;;;;3.80;3.23;;;9.70;50.10;;;;;;5050309;28;20478;-85
2021/10/01 03:23:43;;;;;;;3.53;3.07;;;9.80;50.70;;;;;;5050337;28;20425;-85
2021/10/01 03:26:10;;;;;;;4.07;3.73;;;9.80;50.80;;;;;;5050157;28;20423;-84
2021/10/01 03:28:37;;;;;;;3.60;3.30;;;9.70;50.30;;;;;;5050098;28;20501;-87
2021/10/01 03:31:04;;;;;;;3.87;3.00;;;9.70;51.30;;;;;;5050189;28;20457;-85
2021/10/01 03:33:29;;;;;;;3.20;3.00;;;9.70;51.40;;;;;;5050267;28;20425;-85
2021/10/01 03:35:55;;;;;;;3.83;3.43;;;9.70;51.20;;;;;;5050096;28;20756;-86
2021/10/01 03:38:23;;;;;;;3.60;3.40;;;9.60;51.80;;;;;;5050024;28;20263;-85
2021/10/01 03:40:49;;;;;;;5.67;4.10;;;9.50;51.60;;;;;;5050205;28;20517;-85
2021/10/01 03:43:16;;;;;;;8.07;4.90;;;9.50;51.90;;;;;;5050153;28;20414;-85
2021/10/01 03:45:43;;;;;;;4.57;4.17;;;9.50;52.20;;;;;;5050060;28;20901;-85
2021/10/01 03:48:09;;;;;;;4.13;3.60;;;9.60;52.10;;;;;;5049900;28;20480;-83
2021/10/01 03:50:36;;;;;;;4.77;4.33;;;9.60;52.00;;;;;;5050704;28;21105;-83
2021/10/01 03:53:03;;;;;;;4.00;3.70;;;9.50;52.60;;;;;;5050361;28;20766;-83
2021/10/01 03:55:29;;;;;;;4.10;3.80;;;9.50;52.10;;;;;;5042140;28;20431;-85
2021/10/01 03:57:54;;;;;;;4.63;4.23;;;9.50;52.30;;;;;;5002553;28;20812;-86
2021/10/01 04:00:21;;;;;;;4.93;4.30;;;9.50;51.90;;;;;;5014358;28;20438;-86
2021/10/01 04:02:46;;;;;;;6.07;5.60;;;9.40;52.50;;;;;;5014333;28;20671;-84
2021/10/01 04:05:16;;;;;;;4.97;4.47;;;9.40;53.00;;;;;;5014310;28;20491;-86
2021/10/01 04:07:42;;;;;;;4.30;3.87;;;9.30;52.70;;;;;;5014225;28;20240;-86
2021/10/01 04:10:08;;;;;;;4.40;4.00;;;9.40;53.10;;;;;;5014338;28;20500;-85
2021/10/01 04:12:34;;;;;;;5.20;4.73;;;9.30;53.30;;;;;;5013897;28;20518;-86
2021/10/01 04:15:00;;;;;;;4.80;4.40;;;9.30;53.60;;;;;;5014310;28;20804;-87
2021/10/01 04:17:25;;;;;;;4.50;4.20;;;9.20;54.10;;;;;;5013876;28;20642;-87
2021/10/01 04:19:51;;;;;;;5.17;4.40;;;9.30;54.00;;;;;;5014173;28;20181;-87
2021/10/01 04:22:17;;;;;;;4.17;3.87;;;9.20;54.00;;;;;;5014426;28;20181;-86
2021/10/01 04:24:43;;;;;;;7.73;4.47;;;9.30;53.90;;;;;;5014191;28;20215;-87
2021/10/01 04:27:09;;;;;;;5.17;4.77;;;9.20;54.30;;;;;;5013839;28;20428;-86
2021/10/01 04:29:35;;;;;;;4.17;3.87;;;9.20;54.30;;;;;;5013134;28;20420;-87
2021/10/01 04:32:04;;;;;;;7.63;4.10;;;9.10;54.00;;;;;;5013495;28;20792;-85
2021/10/01 04:34:33;;;;;;;4.40;3.97;;;9.20;53.80;;;;;;5013504;28;20428;-86
2021/10/01 04:37:00;;;;;;;4.43;4.13;;;9.10;54.00;;;;;;5013179;28;20816;-85
2021/10/01 04:39:26;;;;;;;4.53;4.20;;;9.10;54.40;;;;;;5014775;28;20420;-84
2021/10/01 04:41:51;;;;;;;4.53;3.10;;;9.10;53.60;;;;;;5013615;28;20479;-84
2021/10/01 04:44:18;;;;;;;4.90;3.17;;;9.30;53.00;;;;;;5013776;28;20596;-90
2021/10/01 04:46:44;;;;;;;7.30;3.37;;;9.30;52.90;;;;;;5014585;28;20177;-83
2021/10/01 04:49:11;;;;;;;4.63;4.23;;;9.20;52.90;;;;;;5013943;28;20431;-84
2021/10/01 04:51:37;;;;;;;3.80;3.50;;;9.20;53.80;;;;;;5014100;28;20432;-88
2021/10/01 04:54:03;;;;;;;4.70;3.90;;;9.10;54.10;;;;;;5013955;28;20520;-81
2021/10/01 04:56:28;;;;;;;5.17;4.13;;;9.10;54.60;;;;;;5013472;28;20271;-84
2021/10/01 04:58:55;;;;;;;5.30;4.33;;;9.10;54.80;;;;;;5013413;28;20177;-85
2021/10/01 05:01:20;;;;;;;4.30;3.90;;;9.10;54.60;;;;;;5009157;28;20220;-85
2021/10/01 05:03:46;;;;;;;4.47;3.90;;;9.20;54.80;;;;;;5025696;28;20458;-85
2021/10/01 05:06:12;;;;;;;4.10;3.90;;;9.20;54.50;;;;;;5033364;28;20184;-84
2021/10/01 05:08:38;;;;;;;6.33;5.47;;;9.10;54.30;;;;;;5032480;28;20438;-85
2021/10/01 05:11:03;;;;;;;6.10;4.20;;;9.10;54.70;;;;;;5032080;28;20183;-84
2021/10/01 05:13:29;;;;;;;5.10;4.10;;;9.20;54.70;;;;;;5031899;28;20416;-84
2021/10/01 05:15:55;;;;;;;4.30;4.00;;;9.20;54.20;;;;;;5032097;28;20172;-85
2021/10/01 05:18:22;;;;;;;5.30;4.80;;;9.20;54.10;;;;;;5031776;28;20645;-84
2021/10/01 05:20:48;;;;;;;4.63;4.23;;;9.20;54.30;;;;;;5032410;28;20246;-85
2021/10/01 05:23:14;;;;;;;4.40;4.07;;;9.10;53.90;;;;;;5031843;28;20419;-84
2021/10/01 05:25:39;;;;;;;4.90;4.17;;;9.10;54.50;;;;;;5032282;28;20243;-84
2021/10/01 05:28:06;;;;;;;3.90;3.57;;;9.20;54.20;;;;;;5016086;28;20229;-84
2021/10/01 05:30:32;;;;;;;3.90;3.70;;;9.20;54.10;;;;;;5033176;28;20477;-84
2021/10/01 05:33:05;;;;;;;3.60;3.30;;;9.10;54.20;;;;;;5033129;28;20187;-86
2021/10/01 05:35:31;;;;;;;4.60;4.20;;;9.10;54.60;;;;;;5032051;28;20421;-84
2021/10/01 05:37:57;;;;;;;5.43;4.80;;;9.10;54.60;;;;;;5031688;28;20450;-85
2021/10/01 05:40:22;;;;;;;5.77;4.47;;;9.10;54.60;;;;;;5031986;28;20423;-84
2021/10/01 05:42:48;;;;;;;5.80;4.70;;;9.10;54.80;;;;;;5032035;28;20220;-85
2021/10/01 05:45:14;;;;;;;4.50;4.10;;;9.10;54.80;;;;;;5031504;28;20272;-85
2021/10/01 05:47:39;;;;;;;4.80;4.27;;;9.10;54.60;;;;;;5031651;28;20199;-85
2021/10/01 05:50:11;;;;;;;5.67;4.73;;;9.00;55.00;;;;;;5031421;28;20222;-84
2021/10/01 05:55:08;;;;;;;5.13;4.63;;;9.10;54.80;;;;;;5033389;28;20415;-86
2021/10/01 05:57:35;;;;;;;5.10;4.60;;;9.10;55.40;;;;;;5031019;28;20427;-85
2021/10/01 06:00:01;;;;;;;8.07;6.13;;;9.00;54.80;;;;;;5031581;28;20706;-84
2021/10/01 06:02:27;;;;;;;5.97;4.90;;;9.00;55.00;;;;;;5031523;28;20432;-85
2021/10/01 06:04:54;;;;;;;7.90;4.50;;;9.00;55.10;;;;;;5031614;28;20474;-84
2021/10/01 06:07:23;;;;;;;7.07;4.13;;;9.10;54.70;;;;;;5031441;28;20168;-84
2021/10/01 06:09:49;;;;;;;5.50;4.70;;;9.20;53.70;;;;;;5032056;28;20420;-87
2021/10/01 06:12:16;;;;;;;4.13;3.73;;;9.30;53.50;;;;;;5032308;28;20522;-86
2021/10/01 06:14:42;;;;;;;6.33;3.37;;;9.30;53.20;;;;;;5033080;28;20419;-85
2021/10/01 06:17:09;;;;;;;5.40;4.73;;;9.50;51.90;;;;;;5031648;28;20941;-85
2021/10/01 06:19:37;;;;;;;7.73;3.73;;;9.60;51.30;;;;;;5031518;28;20489;-85
2021/10/01 06:22:05;;;;;;;3.43;3.07;;;9.70;50.60;;;;;;5031290;28;21015;-85
2021/10/01 06:24:31;;;;;;;4.57;4.13;;;9.80;50.90;;;;;;5031381;28;20459;-85
2021/10/01 06:26:57;;;;;;;5.50;3.43;;;9.80;50.50;;;;;;5031161;28;20459;-85
2021/10/01 06:29:23;;;;;;;3.50;3.27;;;9.90;49.80;;;;;;5031185;28;20416;-82
2021/10/01 06:31:49;;;;;;;3.80;3.50;;;9.90;49.40;;;;;;5031678;28;20908;-84
2021/10/01 06:34:15;;;;;;;2.83;2.70;;;9.90;49.00;;;;;;5031003;28;20660;-84
2021/10/01 06:36:41;;;;;;;3.93;3.57;;;10.00;47.90;;;;;;5029073;28;20199;-84
2021/10/01 06:39:09;;;;;;;3.43;3.20;;;10.00;48.10;;;;;;5029148;28;20419;-86
2021/10/01 06:41:36;;;;;;;3.70;3.40;;;10.10;48.40;;;;;;5030028;28;20188;-86
2021/10/01 06:44:05;;;;;;;3.80;3.57;;;10.10;48.10;;;;;;5029676;28;20463;-85
2021/10/01 08:21:10;;;;;;;7.20;3.00;;;12.20;44.80;;;;;;5015307;28;20427;-86
2021/10/01 08:23:36;;;;;;;5.17;3.80;;;12.30;44.00;;;;;;5013384;28;20408;-85
2021/10/01 08:26:03;;;;;;;4.57;4.17;;;12.40;44.70;;;;;;5013588;28;20424;-86
2021/10/01 08:28:28;;;;;;;4.23;3.83;;;12.40;44.70;;;;;;5013567;28;20181;-85
2021/10/01 08:30:54;;;;;;;3.70;3.40;;;12.40;44.60;;;;;;5013279;28;20514;-84
2021/10/01 08:33:20;;;;;;;6.57;3.60;;;12.50;44.20;;;;;;5013473;28;20444;-85
2021/10/01 08:35:45;;;;;;;4.87;3.97;;;12.60;43.90;;;;;;5014174;28;20174;-85
2021/10/01 08:38:11;;;;;;;5.90;3.10;;;12.80;44.10;;;;;;5013275;28;20177;-83
2021/10/01 08:40:37;;;;;;;3.13;2.93;;;12.90;44.20;;;;;;5013310;28;20558;-85
2021/10/01 08:43:04;;;;;;;2.80;2.60;;;12.90;44.10;;;;;;5013072;28;20537;-85
2021/10/01 08:45:29;;;;;;;4.00;3.00;;;12.90;43.90;;;;;;5012932;28;20514;-84
2021/10/01 08:47:59;;;;;;;3.03;2.83;;;13.00;43.20;;;;;;5012100;28;20544;-86
2021/10/01 08:50:27;;;;;;;5.27;3.73;;;13.00;43.60;;;;;;5013322;28;20177;-86
2021/10/01 08:52:53;;;;;;;4.67;3.17;;;13.10;43.00;;;;;;5014244;28;20435;-85
2021/10/01 08:55:21;;;;;;;3.23;2.93;;;13.20;43.30;;;;;;5013133;28;20444;-85
2021/10/01 08:57:46;;;;;;;5.87;5.00;;;13.20;43.10;;;;;;5013408;28;20420;-85
2021/10/01 09:00:16;;;;;;;5.43;3.80;;;13.30;43.20;;;;;;5017649;28;20518;-86
2021/10/01 09:02:42;;;;;;;5.03;3.10;;;13.40;43.30;;;;;;5014288;28;20197;-87
2021/10/01 09:05:07;;;;;;;4.57;3.40;;;13.50;43.10;;;;;;5013842;28;20878;-87
2021/10/01 09:07:33;;;;;;;3.50;3.03;;;13.60;42.10;;;;;;5013601;28;20453;-87
2021/10/01 09:10:00;;;;;;;4.97;3.27;;;13.80;41.30;;;;;;5013905;28;20423;-89
2021/10/01 09:12:25;;;;;;;3.20;2.90;;;13.90;41.90;;;;;;5015109;28;20927;-88
2021/10/01 09:14:56;;;;;;;3.37;2.77;;;14.00;41.10;;;;;;5013623;28;20413;-88
2021/10/01 09:17:28;;;;;;;2.63;2.43;;;14.10;41.40;;;;;;5014286;28;20184;-88
2021/10/01 09:19:55;;;;;;;2.53;2.30;;;14.20;41.50;;;;;;5013606;28;20416;-89
2021/10/01 09:22:30;;;;;;;3.33;2.93;;;14.30;40.60;;;;;;5013278;28;20919;-87
2021/10/01 09:25:21;;;;;;;4.17;3.30;;;14.50;40.00;;;;;;5013240;28;21018;-86
2021/10/01 09:27:49;;;;;;;4.07;3.17;;;14.60;39.20;;;;;;5013544;28;20408;-88
2021/10/01 09:30:18;;;;;;;7.17;3.17;;;14.60;40.20;;;;;;5014780;28;20413;-88
2021/10/01 09:33:11;;;;;;;5.83;3.23;;;14.70;40.20;;;;;;5013521;28;20412;-88
2021/10/01 09:35:39;;;;;;;2.60;2.40;;;14.80;40.40;;;;;;5013127;28;20451;-84
2021/10/01 09:38:13;;;;;;;7.27;3.23;;;14.90;40.10;;;;;;5012750;28;20801;-84
2021/10/01 09:40:40;;;;;;;4.80;2.40;;;14.90;41.20;;;;;;5012653;28;20431;-84
2021/10/01 09:43:18;;;;;;;2.70;2.50;;;14.90;39.40;;;;;;5012671;28;20476;-84
2021/10/01 09:46:03;;;;;;;2.73;2.57;;;15.10;38.60;;;;;;5012567;28;20459;-83
2021/10/01 09:48:32;;;;;;;2.70;2.50;;;15.10;38.90;;;;;;5012296;28;20419;-85
2021/10/01 09:51:12;;;;;;;7.13;2.93;;;15.30;39.50;;;;;;5012596;28;20471;-85
2021/10/01 09:53:46;;;;;;;4.50;2.90;;;15.30;38.70;;;;;;5012517;28;20412;-84
2021/10/01 09:56:26;;;;;;;2.77;2.57;;;15.60;37.70;;;;;;5012536;28;20409;-83
2021/10/01 09:59:16;;;;;;;2.80;2.30;;;15.60;38.50;;;;;;5012201;28;20399;-84
2021/10/01 10:02:06;;;;;;;3.33;2.73;;;15.90;37.30;;;;;;5012530;28;20411;-84
2021/10/01 10:04:37;;;;;;;7.33;5.30;;;16.00;37.50;;;;;;5012257;28;20502;-84
2021/10/01 10:07:17;;;;;;;6.80;3.60;;;16.10;37.20;;;;;;5012162;28;20408;-84
2021/10/01 10:09:53;;;;;;;6.80;3.80;;;16.20;37.00;;;;;;5012232;28;20419;-84
2021/10/01 10:12:24;;;;;;;5.67;3.67;;;16.30;37.10;;;;;;5012203;28;20420;-84
2021/10/01 10:14:53;;;;;;;3.07;2.77;;;16.40;37.10;;;;;;5012174;28;20456;-84
2021/10/01 10:17:24;;;;;;;2.63;2.33;;;16.50;37.90;;;;;;5012058;28;20424;-84
2021/10/01 10:19:53;;;;;;;3.80;2.10;;;16.50;37.20;;;;;;5012238;28;20506;-84
2021/10/01 10:22:19;;;;;;;3.10;2.37;;;16.70;34.50;;;;;;5012560;28;20412;-83
2021/10/01 10:24:46;;;;;;;3.73;2.30;;;16.70;35.20;;;;;;5012244;28;20479;-82
2021/10/01 10:27:12;;;;;;;11.10;4.37;;;16.70;32.10;;;;;;5011995;28;20444;-84
2021/10/01 10:29:41;;;;;;;5.60;3.60;;;16.80;32.60;;;;;;5012914;28;20498;-84
2021/10/01 10:32:08;;;;;;;3.03;1.97;;;16.70;33.80;;;;;;5012920;28;20587;-84
2021/10/01 10:34:34;;;;;;;3.33;2.47;;;16.70;34.00;;;;;;5012802;28;20417;-84
2021/10/01 10:37:06;;;;;;;7.90;2.30;;;16.80;32.90;;;;;;5012485;28;20420;-85
2021/10/01 10:39:36;;;;;;;1.60;1.50;;;16.80;33.50;;;;;;5012459;28;20169;-84
2021/10/01 10:42:09;;;;;;;2.43;2.23;;;16.80;33.60;;;;;;5011903;28;20821;-83
2021/10/01 10:44:49;;;;;;;2.23;1.83;;;16.80;35.20;;;;;;5011716;28;20554;-84
2021/10/01 10:47:43;;;;;;;2.10;1.90;;;16.70;34.20;;;;;;5012345;28;20472;-87
2021/10/01 10:50:21;;;;;;;3.30;2.17;;;16.80;34.30;;;;;;5012029;28;20428;-85
2021/10/01 10:53:28;;;;;;;4.70;1.80;;;16.80;34.80;;;;;;5011731;28;20436;-80
2021/10/01 10:55:54;;;;;;;3.13;1.73;;;16.90;35.10;;;;;;4974786;28;20459;-82
2021/10/01 11:00:56;;;;;;;2.53;2.10;;;16.90;34.40;;;;;;5013234;28;20177;-83
2021/10/01 11:03:25;;;;;;;3.53;2.33;;;17.00;35.90;;;;;;5011542;28;20498;-83
2021/10/01 11:06:09;;;;;;;2.27;2.07;;;17.20;34.00;;;;;;5010832;28;20551;-81
2021/10/01 11:08:44;;;;;;;4.90;2.17;;;17.30;33.10;;;;;;5011056;28;20971;-82
2021/10/01 11:11:28;;;;;;;2.33;2.13;;;17.20;33.60;;;;;;5013418;28;20455;-87
2021/10/01 11:14:14;;;;;;;9.57;3.17;;;17.30;32.60;;;;;;5015388;28;20404;-87
2021/10/01 11:16:44;;;;;;;7.20;3.67;;;17.40;31.40;;;;;;5008129;28;20400;-87
2021/10/01 11:19:10;;;;;;;3.90;2.40;;;17.40;32.20;;;;;;5015991;28;20408;-87
2021/10/01 11:21:45;;;;;;;4.23;2.20;;;17.40;32.20;;;;;;5016792;28;20431;-88
2021/10/01 11:24:21;;;;;;;3.63;2.77;;;17.60;31.80;;;;;;5015315;28;20455;-87
2021/10/01 11:26:58;;;;;;;2.40;2.20;;;17.60;31.60;;;;;;5015034;28;20503;-88
2021/10/01 11:29:32;;;;;;;2.80;2.40;;;17.70;32.70;;;;;;5015554;28;20442;-87
2021/10/01 11:32:03;;;;;;;2.73;2.53;;;17.60;32.20;;;;;;5015312;28;20489;-88
2021/10/01 11:34:49;;;;;;;2.40;1.87;;;17.70;31.20;;;;;;5015203;28;20981;-88
2021/10/01 11:37:34;;;;;;;7.03;2.17;;;17.70;29.90;;;;;;5014934;28;20912;-88
2021/10/01 11:40:09;;;;;;;3.00;2.23;;;17.70;30.00;;;;;;5014689;28;20514;-88
2021/10/01 11:42:41;;;;;;;2.40;2.20;;;17.80;30.60;;;;;;5015225;28;20451;-87
2021/10/01 11:45:19;;;;;;;3.17;1.60;;;17.90;30.00;;;;;;5014674;28;20463;-87
2021/10/01 11:47:59;;;;;;;2.80;2.30;;;18.00;29.90;;;;;;5014596;28;20447;-88
2021/10/01 11:50:44;;;;;;;2.47;2.23;;;18.00;30.30;;;;;;5014602;28;20408;-88
2021/10/01 11:53:18;;;;;;;2.80;1.80;;;18.10;28.20;;;;;;5015660;28;20439;-88
2021/10/01 11:55:54;;;;;;;2.30;2.10;;;18.00;28.60;;;;;;5014541;28;20423;-88
2021/10/01 11:58:21;;;;;;;2.43;2.20;;;18.00;28.60;;;;;;5014372;28;20428;-86
2021/10/01 12:00:47;;;;;;;1.63;1.53;;;18.10;28.60;;;;;;5015607;28;20420;-88
2021/10/01 12:03:15;;;;;;;1.80;1.70;;;18.20;27.90;;;;;;5014352;28;20458;-87
2021/10/01 12:05:49;;;;;;;3.50;3.20;;;18.20;27.10;;;;;;5014715;28;20888;-87
2021/10/01 12:08:19;;;;;;;3.50;2.63;;;18.10;27.30;;;;;;5014212;28;20830;-88
2021/10/01 12:10:48;;;;;;;2.10;1.90;;;18.20;28.80;;;;;;5014548;28;20909;-87
2021/10/01 12:13:16;;;;;;;4.53;2.90;;;18.20;28.10;;;;;;5014153;28;20420;-86
2021/10/01 12:15:50;;;;;;;2.83;2.63;;;18.30;28.80;;;;;;5014277;28;20464;-88
2021/10/01 12:18:29;;;;;;;8.17;4.67;;;18.30;28.20;;;;;;5016728;28;20824;-88
2021/10/01 12:20:57;;;;;;;2.50;2.30;;;18.40;26.40;;;;;;5015592;28;20751;-91
2021/10/01 12:23:32;;;;;;;2.40;1.90;;;18.50;27.00;;;;;;5014449;28;20982;-89
2021/10/01 12:26:19;;;;;;;2.10;1.90;;;18.50;27.30;;;;;;5014018;28;20459;-89
2021/10/01 12:29:06;;;;;;;1.53;1.43;;;18.50;27.40;;;;;;5013949;28;20463;-89
2021/10/01 12:31:51;;;;;;;2.70;2.47;;;18.50;26.50;;;;;;5014010;28;20419;-89
2021/10/01 12:34:41;;;;;;;2.10;1.90;;;18.40;27.50;;;;;;5015042;28;20866;-89
2021/10/01 12:37:11;;;;;;;1.60;1.50;;;18.60;26.80;;;;;;5014648;28;20435;-88
2021/10/01 12:39:40;;;;;;;1.80;1.60;;;18.60;25.70;;;;;;5013866;28;20421;-86
2021/10/01 12:42:08;;;;;;;3.30;2.03;;;18.60;24.40;;;;;;5013887;28;20412;-90
2021/10/01 12:44:38;;;;;;;2.10;1.63;;;18.60;25.30;;;;;;5015032;28;20448;-90
2021/10/01 12:47:34;;;;;;;1.90;1.80;;;18.60;26.20;;;;;;5014961;28;20471;-90
2021/10/01 12:50:00;;;;;;;2.40;2.20;;;18.70;25.80;;;;;;5008572;28;20787;-86
2021/10/01 14:19:37;;;;;;;3.27;2.97;;;19.30;29.20;;;;;;5109915;27;20558;-87
2021/10/01 14:22:02;;;;;;;13.47;10.57;;;19.30;29.50;;;;;;5102910;28;20428;-88
2021/10/01 14:24:28;;;;;;;3.70;3.40;;;19.40;29.60;;;;;;5107108;28;20174;-88
2021/10/01 14:26:54;;;;;;;3.20;2.97;;;19.20;29.80;;;;;;5125812;27;20185;-88
2021/10/01 14:29:19;;;;;;;3.80;3.50;;;19.20;30.90;;;;;;5126238;28;20174;-87
2021/10/01 14:31:45;;;;;;;4.93;4.13;;;19.30;31.10;;;;;;5126000;27;20212;-88
2021/10/01 14:34:11;;;;;;;3.80;3.40;;;19.20;31.10;;;;;;5108861;28;20699;-88
2021/10/01 14:36:36;;;;;;;5.80;3.70;;;19.30;31.30;;;;;;5125859;27;20207;-87
2021/10/01 14:39:02;;;;;;;4.73;4.20;;;19.30;31.40;;;;;;5126180;28;20202;-87
2021/10/01 14:41:28;;;;;;;4.17;3.83;;;19.20;32.00;;;;;;5127140;28;20630;-89
2021/10/01 14:43:53;;;;;;;3.90;3.60;;;19.20;32.50;;;;;;5128093;27;20178;-87
2021/10/01 14:46:19;;;;;;;4.00;3.70;;;19.20;31.80;;;;;;5126886;28;20714;-87
2021/10/01 14:48:50;;;;;;;4.00;3.50;;;19.10;32.90;;;;;;5126826;27;20588;-87
2021/10/01 14:51:16;;;;;;;7.60;6.60;;;19.20;32.00;;;;;;5126783;28;20165;-86
2021/10/01 14:53:41;;;;;;;6.63;6.00;;;19.30;31.70;;;;;;5126321;28;20991;-88
2021/10/01 14:56:07;;;;;;;5.00;4.50;;;19.30;32.20;;;;;;5108859;28;20177;-88
2021/10/01 14:58:33;;;;;;;4.03;3.73;;;19.30;32.10;;;;;;5109829;28;20205;-86
2021/10/01 15:00:58;;;;;;;4.30;4.00;;;19.50;30.90;;;;;;5126223;28;20170;-87
2021/10/01 15:03:24;;;;;;;4.40;4.00;;;19.50;32.20;;;;;;5108368;28;20204;-87
2021/10/01 15:05:50;;;;;;;4.60;4.20;;;19.60;29.70;;;;;;5125443;27;20178;-86
2021/10/01 15:08:16;;;;;;;4.00;3.60;;;19.60;30.70;;;;;;5124995;28;20170;-86
2021/10/01 15:10:42;;;;;;;5.87;5.20;;;19.60;30.40;;;;;;5125214;28;20201;-86
2021/10/01 15:13:08;;;;;;;5.47;4.97;;;19.60;30.80;;;;;;5125205;28;20500;-85
2021/10/01 15:15:34;;;;;;;6.90;6.20;;;19.50;31.00;;;;;;5109579;28;20178;-85
2021/10/01 15:18:00;;;;;;;4.47;4.07;;;19.50;33.10;;;;;;5125031;28;20464;-85
2021/10/01 15:20:25;;;;;;;5.07;3.60;;;19.70;29.80;;;;;;5125560;28;20216;-85
2021/10/01 15:22:51;;;;;;;3.93;3.63;;;19.70;29.80;;;;;;5125644;28;20220;-87
2021/10/01 15:25:17;;;;;;;3.87;3.50;;;19.60;29.10;;;;;;5125291;27;20170;-86
2021/10/01 15:27:43;;;;;;;3.40;3.20;;;19.60;28.90;;;;;;5125318;28;20182;-86
2021/10/01 15:30:11;;;;;;;3.37;3.17;;;19.70;29.30;;;;;;5116282;28;20413;-86
2021/10/01 15:32:42;;;;;;;4.40;4.00;;;19.70;29.80;;;;;;5094791;28;20175;-83
2021/10/01 15:35:10;;;;;;;4.47;3.40;;;19.80;29.20;;;;;;5111639;28;20448;-85
2021/10/01 15:37:36;;;;;;;3.70;3.43;;;19.70;28.80;;;;;;5111232;28;20455;-86
2021/10/01 15:40:05;;;;;;;3.73;3.37;;;19.70;29.30;;;;;;5111534;28;20409;-85
2021/10/01 15:42:31;;;;;;;5.40;3.93;;;19.70;29.80;;;;;;5112116;28;20901;-87
2021/10/01 15:44:57;;;;;;;4.27;3.90;;;19.60;28.90;;;;;;5112196;28;20500;-86
2021/10/01 15:47:22;;;;;;;4.83;4.43;;;19.60;29.70;;;;;;5112241;28;20273;-87
2021/10/01 15:49:48;;;;;;;4.20;3.80;;;19.50;29.40;;;;;;5111865;28;20220;-81
2021/10/01 15:52:14;;;;;;;3.57;3.27;;;19.40;30.20;;;;;;5112151;28;20257;-82
2021/10/01 15:54:48;;;;;;;4.27;3.80;;;19.40;29.60;;;;;;5111237;28;20221;-87
2021/10/01 15:57:15;;;;;;;4.37;3.30;;;19.40;29.60;;;;;;5110809;28;20198;-88
2021/10/01 15:59:41;;;;;;;4.40;4.00;;;19.40;29.60;;;;;;5095097;28;20401;-87
2021/10/01 16:02:06;;;;;;;5.60;5.10;;;19.30;31.00;;;;;;5110957;28;20804;-87
2021/10/01 16:04:32;;;;;;;5.10;3.63;;;19.20;30.70;;;;;;5110622;28;20175;-87
2021/10/01 16:06:58;;;;;;;3.83;3.33;;;19.20;30.40;;;;;;5110456;28;20167;-87
2021/10/01 16:09:24;;;;;;;4.30;3.83;;;19.10;30.90;;;;;;5110857;28;20174;-87
2021/10/01 16:11:50;;;;;;;4.00;3.70;;;19.10;31.00;;;;;;5112661;28;20273;-86